Time;durP1;ratioP1;P1;durP2;ratioP2;P2;SDS_P1;SDS_P2;PMS_P1;PMS_P2;Temp;Humidity;BMP_temperature;BMP_pressure;BME280_temperature;BME280_humidity;BME280_pressure;Samples;Min_cycle;Max_cycle;Signal;HPM_P1;HPM_P2
2022/05/16 00:00:47;;;;;;;7.38;6.15;;;;;;;11.77;100.00;93510.03;5066682;28;20048;-75
2022/05/16 00:03:13;;;;;;;7.53;5.97;;;;;;;11.70;100.00;93504.91;5065937;28;20071;-75
2022/05/16 00:05:40;;;;;;;6.95;6.05;;;;;;;11.76;100.00;93518.75;5066367;28;20061;-75
2022/05/16 00:08:08;;;;;;;7.75;5.82;;;;;;;11.77;100.00;93521.09;5066153;28;20526;-75
2022/05/16 00:10:37;;;;;;;7.57;6.28;;;;;;;11.70;100.00;93522.94;5062766;28;20059;-75
2022/05/16 00:13:04;;;;;;;7.68;6.15;;;;;;;11.78;100.00;93521.91;5062673;28;20048;-75
2022/05/16 00:15:31;;;;;;;6.72;5.90;;;;;;;11.67;100.00;93513.03;5065750;28;20048;-75
2022/05/16 00:17:58;;;;;;;6.43;5.20;;;;;;;11.58;100.00;93512.50;5065241;28;20056;-75
2022/05/16 00:20:25;;;;;;;6.50;5.70;;;;;;;11.68;100.00;93516.41;5066150;28;20079;-75
2022/05/16 00:22:52;;;;;;;6.47;5.53;;;;;;;11.55;100.00;93525.81;5065592;28;20055;-75
2022/05/16 00:25:19;;;;;;;6.70;5.32;;;;;;;11.40;100.00;93510.66;5065738;28;20507;-76
2022/05/16 00:27:48;;;;;;;7.90;5.43;;;;;;;11.50;100.00;93517.91;5062360;28;20040;-76
2022/05/16 00:30:18;;;;;;;7.05;5.85;;;;;;;11.46;100.00;93511.59;5062327;28;20056;-76
2022/05/16 00:32:48;;;;;;;8.15;5.60;;;;;;;11.46;100.00;93503.88;5065811;28;20059;-76
2022/05/16 00:35:16;;;;;;;8.07;5.82;;;;;;;11.44;100.00;93498.16;5060401;28;20530;-76
2022/05/16 00:37:44;;;;;;;7.18;5.68;;;;;;;11.43;100.00;93501.75;5056670;28;20054;-76
2022/05/16 00:40:12;;;;;;;7.47;5.50;;;;;;;11.32;100.00;93496.25;5065389;28;20060;-76
2022/05/16 00:42:39;;;;;;;8.13;5.75;;;;;;;11.33;100.00;93502.97;5065051;28;20056;-76
2022/05/16 00:45:09;;;;;;;6.60;5.38;;;;;;;11.15;100.00;93477.94;5066364;28;20530;-76
2022/05/16 00:47:36;;;;;;;8.65;4.80;;;;;;;11.23;100.00;93506.00;5066426;28;20044;-76
2022/05/16 00:50:06;;;;;;;7.43;5.45;;;;;;;11.23;100.00;93502.63;5055564;28;20041;-76
2022/05/16 00:52:36;;;;;;;6.72;4.78;;;;;;;11.18;100.00;93503.25;5065164;28;20467;-76
2022/05/16 00:55:06;;;;;;;5.93;5.13;;;;;;;11.07;100.00;93502.09;5069418;28;20515;-76
2022/05/16 00:57:36;;;;;;;6.97;5.13;;;;;;;11.05;100.00;93504.09;5069521;28;20499;-77
2022/05/16 01:00:09;;;;;;;5.55;4.78;;;;;;;11.07;100.00;93502.09;5063264;28;20051;-77
2022/05/16 01:05:23;;;;;;;5.60;4.90;;;;;;;10.93;100.00;93500.59;5069744;28;20090;-77
2022/05/16 01:07:50;;;;;;;5.85;5.10;;;;;;;10.89;100.00;93494.28;5061110;28;20049;-77
2022/05/16 01:10:18;;;;;;;6.25;5.00;;;;;;;10.79;100.00;93484.44;5054657;28;20146;-77
2022/05/16 01:12:48;;;;;;;7.88;5.60;;;;;;;10.71;100.00;93493.19;5060015;28;20503;-77
2022/05/16 01:15:26;;;;;;;7.38;5.43;;;;;;;10.67;100.00;93502.28;5058867;28;20060;-77
2022/05/16 01:17:53;;;;;;;7.00;5.68;;;;;;;10.63;100.00;93501.09;5054434;28;20045;-77
2022/05/16 01:20:20;;;;;;;7.32;5.60;;;;;;;10.59;100.00;93492.22;5059496;28;20072;-76
2022/05/16 01:22:51;;;;;;;6.72;5.93;;;;;;;10.56;100.00;93499.34;5058153;28;20049;-77
2022/05/16 01:25:23;;;;;;;7.90;6.13;;;;;;;10.53;100.00;93492.03;5058692;28;20052;-76
2022/05/16 01:27:52;;;;;;;6.32;5.45;;;;;;;10.41;100.00;93484.13;5058095;28;20492;-76
2022/05/16 01:30:22;;;;;;;7.55;5.90;;;;;;;10.49;100.00;93506.28;5058256;28;20084;-76
2022/05/16 01:32:49;;;;;;;7.93;6.18;;;;;;;10.46;100.00;93501.53;5058047;28;20053;-76
2022/05/16 01:35:19;;;;;;;6.20;5.60;;;;;;;10.45;100.00;93499.97;5059221;28;20041;-76
2022/05/16 01:40:32;;;;;;;5.93;4.50;;;;;;;10.60;100.00;93499.72;5058104;28;20122;-76
2022/05/16 01:42:59;;;;;;;6.20;5.13;;;;;;;10.69;100.00;93495.13;5058075;28;20044;-76
2022/05/16 01:45:26;;;;;;;6.65;5.50;;;;;;;10.78;100.00;93503.44;5059557;28;20044;-76
2022/05/16 01:47:52;;;;;;;6.47;5.35;;;;;;;10.82;100.00;93499.44;5066697;28;20041;-76
2022/05/16 01:50:19;;;;;;;5.65;4.97;;;;;;;10.79;100.00;93500.63;5072550;28;20040;-76
2022/05/16 01:52:48;;;;;;;7.03;5.38;;;;;;;10.78;100.00;93504.22;5072420;28;20056;-76
2022/05/16 01:55:15;;;;;;;8.05;5.63;;;;;;;10.62;100.00;93487.47;5072297;28;20047;-75
2022/05/16 01:57:42;;;;;;;7.22;5.55;;;;;;;10.69;100.00;93501.06;5072225;28;20052;-75
2022/05/16 02:00:11;;;;;;;7.85;6.05;;;;;;;10.68;100.00;93502.06;5072265;28;20044;-76
2022/05/16 02:02:41;;;;;;;8.75;6.22;;;;;;;10.40;100.00;93472.28;5072400;28;20058;-75
2022/05/16 02:05:08;;;;;;;7.18;6.00;;;;;;;10.57;100.00;93500.13;5072074;28;20041;-75
2022/05/16 02:07:35;;;;;;;7.32;5.80;;;;;;;10.55;100.00;93499.53;5072450;28;20040;-76
2022/05/16 02:10:05;;;;;;;6.63;5.60;;;;;;;10.63;100.00;93501.88;5071977;28;20487;-75
2022/05/16 02:12:33;;;;;;;9.48;5.50;;;;;;;10.61;100.00;93510.78;5072037;28;20498;-76
2022/05/16 02:15:00;;;;;;;8.13;5.07;;;;;;;10.56;100.00;93514.75;5072193;28;20044;-76
2022/05/16 02:17:27;;;;;;;5.72;4.80;;;;;;;10.48;100.00;93514.97;5071775;28;20704;-75
2022/05/16 02:19:53;;;;;;;6.65;4.93;;;;;;;10.38;100.00;93504.28;5071863;28;20512;-76
2022/05/16 02:25:07;;;;;;;5.60;4.32;;;;;;;10.20;100.00;93504.91;5071752;28;20182;-76
2022/05/16 02:27:34;;;;;;;6.03;4.35;;;;;;;10.12;100.00;93501.56;5071751;28;20053;-76
2022/05/16 02:30:01;;;;;;;6.25;4.95;;;;;;;10.07;100.00;93498.00;5071570;28;20488;-76
2022/05/16 02:32:28;;;;;;;4.78;4.25;;;;;;;10.21;100.00;93503.91;5071478;28;20060;-76
2022/05/16 02:34:55;;;;;;;6.45;4.65;;;;;;;10.25;100.00;93502.53;5071615;28;20048;-76
2022/05/16 02:37:22;;;;;;;5.45;4.53;;;;;;;10.26;100.00;93506.69;5071736;28;20046;-76
2022/05/16 02:39:49;;;;;;;6.78;4.50;;;;;;;10.27;100.00;93498.78;5071793;28;20047;-76
2022/05/16 02:42:17;;;;;;;6.05;4.78;;;;;;;10.23;100.00;93496.81;5071880;28;20040;-76
2022/05/16 02:44:44;;;;;;;6.20;5.22;;;;;;;10.22;100.00;93501.16;5071647;28;20044;-80
2022/05/16 02:47:13;;;;;;;6.82;5.07;;;;;;;10.12;100.00;93511.03;5071625;28;20071;-77
2022/05/16 02:49:39;;;;;;;5.10;4.60;;;;;;;10.06;100.00;93504.94;5070122;28;20059;-76
2022/05/16 02:52:07;;;;;;;7.20;4.95;;;;;;;9.81;100.00;93466.25;5068524;28;20048;-76
2022/05/16 02:54:35;;;;;;;5.57;4.63;;;;;;;9.90;100.00;93498.41;5069953;28;20411;-76
2022/05/16 02:57:01;;;;;;;6.97;5.20;;;;;;;9.92;100.00;93511.84;5069985;28;20048;-76
2022/05/16 02:59:32;;;;;;;7.03;4.88;;;;;;;9.82;100.00;93501.97;5070095;28;20063;-76
2022/05/16 03:01:59;;;;;;;7.50;4.80;;;;;;;9.80;100.00;93500.56;5071367;28;20201;-76
2022/05/16 03:04:26;;;;;;;6.25;5.07;;;;;;;9.72;100.00;93499.03;5070314;28;20044;-76
2022/05/16 03:06:53;;;;;;;9.68;5.00;;;;;;;9.72;100.00;93504.16;5070999;28;20052;-76
2022/05/16 03:09:20;;;;;;;5.93;5.28;;;;;;;9.72;100.00;93493.91;5071278;28;20055;-76
2022/05/16 03:11:48;;;;;;;7.43;5.35;;;;;;;9.70;100.00;93495.84;5071228;28;20048;-76
2022/05/16 03:14:14;;;;;;;5.82;5.20;;;;;;;9.66;100.00;93492.88;5071254;28;20055;-76
2022/05/16 03:16:43;;;;;;;8.25;6.00;;;;;;;9.62;100.00;93499.38;5070429;28;20522;-76
2022/05/16 03:19:09;;;;;;;8.32;6.70;;;;;;;9.56;100.00;93506.09;5070628;28;20415;-76
2022/05/16 03:21:36;;;;;;;11.25;6.45;;;;;;;9.55;100.00;93509.66;5070958;28;20056;-76
2022/05/16 03:24:04;;;;;;;19.13;7.72;;;;;;;9.57;100.00;93509.44;5070891;28;20051;-76
2022/05/16 03:26:30;;;;;;;9.13;6.88;;;;;;;9.61;100.00;93505.50;5070975;28;20044;-76
2022/05/16 03:28:57;;;;;;;10.00;7.10;;;;;;;9.30;100.00;93463.28;5071023;28;20052;-76
2022/05/16 03:31:24;;;;;;;11.05;6.80;;;;;;;9.57;100.00;93499.19;5070546;28;20057;-76
2022/05/16 03:33:52;;;;;;;10.93;6.70;;;;;;;9.68;100.00;93506.28;5068101;28;20045;-76
2022/05/16 03:36:19;;;;;;;11.15;7.25;;;;;;;9.62;100.00;93507.09;5070261;28;20044;-76
2022/05/16 03:41:30;;;;;;;11.98;7.10;;;;;;;9.85;100.00;93513.59;5070408;28;20087;-76
2022/05/16 03:43:57;;;;;;;8.05;6.30;;;;;;;9.83;100.00;93518.16;5070210;28;20047;-77
2022/05/16 03:46:25;;;;;;;15.95;7.20;;;;;;;9.94;100.00;93529.59;5070664;28;20056;-76
2022/05/16 03:48:54;;;;;;;13.82;8.55;;;;;;;9.97;100.00;93530.00;5070661;28;20059;-76
2022/05/16 03:51:21;;;;;;;10.82;6.72;;;;;;;10.01;100.00;93535.53;5070134;28;20044;-76
2022/05/16 03:53:48;;;;;;;9.00;6.20;;;;;;;9.99;100.00;93529.78;5070319;28;20904;-76
2022/05/16 03:56:16;;;;;;;7.20;5.95;;;;;;;10.11;100.00;93543.63;5070062;28;20051;-76
2022/05/16 03:58:43;;;;;;;7.82;5.60;;;;;;;10.13;100.00;93545.97;5070312;28;20389;-76
2022/05/16 04:01:11;;;;;;;9.68;6.28;;;;;;;10.10;100.00;93542.03;5070101;28;20040;-76
2022/05/16 04:03:38;;;;;;;9.82;6.10;;;;;;;10.18;100.00;93553.88;5070084;28;20044;-75
2022/05/16 04:06:07;;;;;;;6.95;5.93;;;;;;;10.21;100.00;93561.19;5069994;28;20451;-76
2022/05/16 04:08:34;;;;;;;10.43;6.45;;;;;;;10.27;100.00;93559.59;5070229;28;20051;-76
2022/05/16 04:11:03;;;;;;;10.10;6.18;;;;;;;10.33;100.00;93570.88;5069305;28;20053;-76
2022/05/16 04:13:30;;;;;;;9.68;6.40;;;;;;;10.32;100.00;93564.16;5069730;28;20049;-76
2022/05/16 04:15:57;;;;;;;13.02;7.72;;;;;;;10.38;100.00;93568.50;5069531;28;20051;-75
2022/05/16 04:18:24;;;;;;;11.27;7.05;;;;;;;10.45;100.00;93571.09;5069542;28;20063;-76
2022/05/16 04:20:51;;;;;;;17.20;9.20;;;;;;;10.49;100.00;93569.69;5069730;28;20135;-76
2022/05/16 04:23:19;;;;;;;14.50;8.10;;;;;;;10.56;100.00;93573.06;5069583;28;20052;-76
2022/05/16 04:25:46;;;;;;;14.60;8.65;;;;;;;10.61;100.00;93562.97;5069507;28;20047;-76
2022/05/16 04:28:13;;;;;;;14.68;9.20;;;;;;;10.67;100.00;93564.72;5069599;28;20440;-76
2022/05/16 04:30:40;;;;;;;12.32;8.68;;;;;;;10.82;100.00;93566.25;5069575;28;20059;-77
2022/05/16 04:33:08;;;;;;;15.93;9.23;;;;;;;10.88;100.00;93556.97;5069565;28;20048;-76
2022/05/16 04:35:36;;;;;;;14.52;9.63;;;;;;;11.05;100.00;93568.38;5069439;28;20495;-76
2022/05/16 04:38:04;;;;;;;12.25;9.68;;;;;;;11.17;100.00;93578.81;5069383;28;20082;-76
2022/05/16 04:40:34;;;;;;;13.70;9.45;;;;;;;11.28;100.00;93571.44;5069331;28;20047;-76
2022/05/16 04:43:00;;;;;;;11.35;8.43;;;;;;;11.44;100.00;93575.34;5069561;28;20044;-77
2022/05/16 04:45:29;;;;;;;11.27;7.53;;;;;;;11.52;100.00;93572.50;5069226;28;20068;-76
2022/05/16 04:47:58;;;;;;;12.82;8.25;;;;;;;11.52;100.00;93558.88;5069042;28;20048;-76
2022/05/16 04:50:27;;;;;;;11.98;7.78;;;;;;;11.83;100.00;93580.44;5069320;28;20424;-76
2022/05/16 04:52:54;;;;;;;11.70;7.95;;;;;;;12.00;100.00;93578.94;5069296;28;20083;-77
2022/05/16 04:55:22;;;;;;;14.77;8.57;;;;;;;12.15;100.00;93578.69;5068975;28;20051;-77
2022/05/16 04:57:50;;;;;;;14.82;9.07;;;;;;;12.34;100.00;93581.31;5069026;28;20049;-77
2022/05/16 05:00:19;;;;;;;14.70;8.95;;;;;;;12.54;100.00;93590.66;5069289;28;20091;-76
2022/05/16 05:02:46;;;;;;;19.13;10.75;;;;;;;12.70;100.00;93595.25;5069091;28;20389;-77
2022/05/16 05:05:15;;;;;;;18.45;9.65;;;;;;;12.83;100.00;93588.41;5068862;28;20044;-76
2022/05/16 05:07:44;;;;;;;19.20;9.65;;;;;;;12.91;100.00;93571.88;5068849;28;20055;-77
2022/05/16 05:15:43;;;;;;;27.60;12.98;;;;;;;13.52;100.00;93589.25;5068743;28;20130;-76
2022/05/16 05:18:10;;;;;;;28.05;13.95;;;;;;;13.69;100.00;93594.56;5069122;28;20063;-76
2022/05/16 05:20:37;;;;;;;28.08;14.13;;;;;;;13.85;100.00;93603.53;5068511;28;20052;-76
2022/05/16 05:23:05;;;;;;;29.77;14.15;;;;;;;13.89;100.00;93586.59;5068917;28;20045;-77
2022/05/16 05:25:32;;;;;;;32.65;15.30;;;;;;;14.16;100.00;93609.41;5067616;28;20041;-77
2022/05/16 05:28:03;;;;;;;38.72;17.13;;;;;;;14.35;99.23;93606.78;5065166;28;20048;-77
2022/05/16 05:30:32;;;;;;;41.40;16.73;;;;;;;14.48;96.83;93600.63;5067257;28;20480;-77
2022/05/16 05:32:59;;;;;;;57.78;25.90;;;;;;;14.59;98.38;93592.06;5068762;28;20045;-77
2022/05/16 05:35:26;;;;;;;48.45;21.17;;;;;;;14.79;99.86;93596.94;5068377;28;20049;-77
2022/05/16 05:37:55;;;;;;;56.15;25.20;;;;;;;14.98;98.65;93598.56;5068492;28;20049;-77
2022/05/16 05:40:23;;;;;;;54.40;25.33;;;;;;;15.20;96.10;93591.81;5068296;28;20051;-77
2022/05/16 05:42:50;;;;;;;37.97;17.40;;;;;;;15.43;93.88;93602.31;5068682;28;20040;-77
2022/05/16 05:45:18;;;;;;;32.72;14.57;;;;;;;15.54;91.26;93588.56;5068437;28;20036;-77
2022/05/16 05:47:45;;;;;;;21.42;9.60;;;;;;;15.69;89.32;93569.13;5068303;28;20442;-77
2022/05/16 05:50:12;;;;;;;17.15;9.48;;;;;;;16.11;86.10;93606.91;5068439;28;20047;-77
2022/05/16 05:52:39;;;;;;;22.45;12.25;;;;;;;16.26;85.31;93601.19;5068151;28;20053;-77
2022/05/16 05:55:07;;;;;;;22.25;11.57;;;;;;;16.58;84.18;93607.63;5068642;28;20049;-77
2022/05/16 05:57:35;;;;;;;26.08;11.88;;;;;;;16.88;85.20;93601.28;5068551;28;20055;-77
2022/05/16 06:00:02;;;;;;;18.45;9.88;;;;;;;17.29;82.94;93612.25;5068233;28;20076;-76
2022/05/16 06:02:31;;;;;;;16.33;7.72;;;;;;;17.69;80.36;93614.75;5062080;28;20723;-77
2022/05/16 06:04:57;;;;;;;13.02;7.35;;;;;;;18.05;77.96;93611.72;5066322;28;20055;-77
2022/05/16 06:07:24;;;;;;;14.88;7.53;;;;;;;18.41;75.23;93612.03;5067696;28;20056;-76
2022/05/16 06:09:51;;;;;;;12.15;6.90;;;;;;;18.66;72.87;93603.63;5068097;28;20045;-76
2022/05/16 06:12:18;;;;;;;10.25;6.03;;;;;;;19.01;69.52;93606.72;5068034;28;20492;-77
2022/05/16 06:14:45;;;;;;;11.57;6.53;;;;;;;19.23;64.43;93621.44;5068355;28;20045;-77
